sensor_id;sensor_type;location;lat;lon;timestamp;P1;durP1;ratioP1;P2;durP2;ratioP2
10731;SDS011;5417;42.686;23.244;2023-08-20T00:01:54;6.93;;;6.53;;
10731;SDS011;5417;42.686;23.244;2023-08-20T00:04:25;8.40;;;7.40;;
10731;SDS011;5417;42.686;23.244;2023-08-20T00:06:55;8.73;;;6.97;;
10731;SDS011;5417;42.686;23.244;2023-08-20T00:09:22;7.50;;;6.83;;
10731;SDS011;5417;42.686;23.244;2023-08-20T00:11:54;8.33;;;7.73;;
10731;SDS011;5417;42.686;23.244;2023-08-20T00:17:27;8.43;;;7.60;;
10731;SDS011;5417;42.686;23.244;2023-08-20T00:19:54;8.30;;;7.50;;
10731;SDS011;5417;42.686;23.244;2023-08-20T00:22:24;8.30;;;6.93;;
10731;SDS011;5417;42.686;23.244;2023-08-20T00:24:52;7.97;;;7.37;;
10731;SDS011;5417;42.686;23.244;2023-08-20T00:27:20;7.53;;;7.03;;
10731;SDS011;5417;42.686;23.244;2023-08-20T00:29:47;7.90;;;7.23;;
10731;SDS011;5417;42.686;23.244;2023-08-20T00:32:14;8.23;;;7.53;;
10731;SDS011;5417;42.686;23.244;2023-08-20T00:34:41;8.30;;;7.60;;
10731;SDS011;5417;42.686;23.244;2023-08-20T00:37:08;8.10;;;7.40;;
10731;SDS011;5417;42.686;23.244;2023-08-20T00:39:39;7.70;;;7.03;;
10731;SDS011;5417;42.686;23.244;2023-08-20T00:42:06;8.27;;;7.50;;
10731;SDS011;5417;42.686;23.244;2023-08-20T00:44:35;8.10;;;7.30;;
10731;SDS011;5417;42.686;23.244;2023-08-20T00:47:02;8.63;;;7.40;;
10731;SDS011;5417;42.686;23.244;2023-08-20T00:49:31;8.00;;;7.30;;
10731;SDS011;5417;42.686;23.244;2023-08-20T00:51:58;8.30;;;7.60;;
10731;SDS011;5417;42.686;23.244;2023-08-20T00:54:26;7.93;;;7.33;;
10731;SDS011;5417;42.686;23.244;2023-08-20T00:56:55;8.73;;;8.00;;
10731;SDS011;5417;42.686;23.244;2023-08-20T00:59:22;7.87;;;7.30;;
10731;SDS011;5417;42.686;23.244;2023-08-20T01:01:49;8.60;;;7.90;;
10731;SDS011;5417;42.686;23.244;2023-08-20T01:04:17;8.50;;;7.67;;
10731;SDS011;5417;42.686;23.244;2023-08-20T01:06:46;8.47;;;7.87;;
10731;SDS011;5417;42.686;23.244;2023-08-20T01:09:23;8.63;;;7.90;;
10731;SDS011;5417;42.686;23.244;2023-08-20T01:12:01;8.63;;;8.03;;
10731;SDS011;5417;42.686;23.244;2023-08-20T01:14:30;7.80;;;7.20;;
10731;SDS011;5417;42.686;23.244;2023-08-20T01:16:56;7.80;;;7.20;;
10731;SDS011;5417;42.686;23.244;2023-08-20T01:19:23;8.63;;;7.93;;
10731;SDS011;5417;42.686;23.244;2023-08-20T01:21:59;8.93;;;8.23;;
10731;SDS011;5417;42.686;23.244;2023-08-20T01:24:38;8.70;;;8.10;;
10731;SDS011;5417;42.686;23.244;2023-08-20T01:30:19;9.30;;;8.40;;
10731;SDS011;5417;42.686;23.244;2023-08-20T01:32:48;8.27;;;7.53;;
10731;SDS011;5417;42.686;23.244;2023-08-20T01:35:18;9.07;;;8.10;;
10731;SDS011;5417;42.686;23.244;2023-08-20T01:37:45;8.63;;;8.03;;
10731;SDS011;5417;42.686;23.244;2023-08-20T01:40:18;9.20;;;8.30;;
10731;SDS011;5417;42.686;23.244;2023-08-20T01:42:46;8.23;;;7.57;;
10731;SDS011;5417;42.686;23.244;2023-08-20T01:45:13;9.17;;;8.37;;
10731;SDS011;5417;42.686;23.244;2023-08-20T01:47:41;9.00;;;8.10;;
10731;SDS011;5417;42.686;23.244;2023-08-20T01:50:08;9.10;;;8.33;;
10731;SDS011;5417;42.686;23.244;2023-08-20T01:52:36;8.60;;;7.90;;
10731;SDS011;5417;42.686;23.244;2023-08-20T01:55:03;8.50;;;7.80;;
10731;SDS011;5417;42.686;23.244;2023-08-20T01:57:31;8.13;;;7.53;;
10731;SDS011;5417;42.686;23.244;2023-08-20T01:59:58;8.60;;;7.90;;
10731;SDS011;5417;42.686;23.244;2023-08-20T02:02:25;8.30;;;7.60;;
10731;SDS011;5417;42.686;23.244;2023-08-20T02:04:53;8.17;;;7.67;;
10731;SDS011;5417;42.686;23.244;2023-08-20T02:07:20;8.33;;;7.70;;
10731;SDS011;5417;42.686;23.244;2023-08-20T02:09:47;8.60;;;8.00;;
10731;SDS011;5417;42.686;23.244;2023-08-20T02:12:14;8.87;;;8.17;;
10731;SDS011;5417;42.686;23.244;2023-08-20T02:14:41;10.00;;;8.97;;
10731;SDS011;5417;42.686;23.244;2023-08-20T02:17:08;8.43;;;7.80;;
10731;SDS011;5417;42.686;23.244;2023-08-20T02:19:37;8.60;;;7.90;;
10731;SDS011;5417;42.686;23.244;2023-08-20T02:22:05;9.50;;;8.70;;
10731;SDS011;5417;42.686;23.244;2023-08-20T02:24:32;9.27;;;8.47;;
10731;SDS011;5417;42.686;23.244;2023-08-20T02:26:59;9.67;;;8.80;;
10731;SDS011;5417;42.686;23.244;2023-08-20T02:29:26;8.73;;;8.03;;
10731;SDS011;5417;42.686;23.244;2023-08-20T02:31:53;9.27;;;8.23;;
10731;SDS011;5417;42.686;23.244;2023-08-20T02:34:20;9.13;;;8.23;;
10731;SDS011;5417;42.686;23.244;2023-08-20T02:36:47;10.73;;;8.73;;
10731;SDS011;5417;42.686;23.244;2023-08-20T02:39:16;9.50;;;8.77;;
10731;SDS011;5417;42.686;23.244;2023-08-20T02:41:43;10.37;;;9.47;;
10731;SDS011;5417;42.686;23.244;2023-08-20T02:44:10;9.07;;;8.47;;
10731;SDS011;5417;42.686;23.244;2023-08-20T02:46:39;9.20;;;8.50;;
10731;SDS011;5417;42.686;23.244;2023-08-20T02:49:06;9.70;;;8.90;;
10731;SDS011;5417;42.686;23.244;2023-08-20T02:51:34;10.17;;;9.17;;
10731;SDS011;5417;42.686;23.244;2023-08-20T02:54:01;10.17;;;9.33;;
10731;SDS011;5417;42.686;23.244;2023-08-20T02:56:30;10.03;;;9.27;;
10731;SDS011;5417;42.686;23.244;2023-08-20T02:58:57;11.03;;;10.07;;
10731;SDS011;5417;42.686;23.244;2023-08-20T03:01:25;10.70;;;9.70;;
10731;SDS011;5417;42.686;23.244;2023-08-20T03:03:52;9.87;;;9.00;;
10731;SDS011;5417;42.686;23.244;2023-08-20T03:06:19;9.80;;;8.90;;
10731;SDS011;5417;42.686;23.244;2023-08-20T03:08:46;10.23;;;9.20;;
10731;SDS011;5417;42.686;23.244;2023-08-20T03:11:13;10.07;;;9.20;;
10731;SDS011;5417;42.686;23.244;2023-08-20T03:13:42;9.50;;;8.80;;
10731;SDS011;5417;42.686;23.244;2023-08-20T03:16:08;10.60;;;9.50;;
10731;SDS011;5417;42.686;23.244;2023-08-20T03:18:36;10.17;;;9.37;;
10731;SDS011;5417;42.686;23.244;2023-08-20T03:21:03;9.47;;;8.77;;
10731;SDS011;5417;42.686;23.244;2023-08-20T03:23:30;9.97;;;9.17;;
10731;SDS011;5417;42.686;23.244;2023-08-20T03:25:58;9.53;;;8.80;;
10731;SDS011;5417;42.686;23.244;2023-08-20T03:28:25;9.60;;;8.97;;
10731;SDS011;5417;42.686;23.244;2023-08-20T03:30:53;10.53;;;9.60;;
10731;SDS011;5417;42.686;23.244;2023-08-20T03:33:22;9.90;;;9.10;;
10731;SDS011;5417;42.686;23.244;2023-08-20T03:35:49;10.80;;;9.87;;
10731;SDS011;5417;42.686;23.244;2023-08-20T03:38:16;10.30;;;9.57;;
10731;SDS011;5417;42.686;23.244;2023-08-20T03:43:13;10.77;;;9.57;;
10731;SDS011;5417;42.686;23.244;2023-08-20T03:45:40;9.50;;;8.80;;
10731;SDS011;5417;42.686;23.244;2023-08-20T03:48:09;9.80;;;8.77;;
10731;SDS011;5417;42.686;23.244;2023-08-20T03:50:36;9.60;;;8.90;;
10731;SDS011;5417;42.686;23.244;2023-08-20T03:53:03;10.47;;;9.67;;
10731;SDS011;5417;42.686;23.244;2023-08-20T03:55:30;9.73;;;9.03;;
10731;SDS011;5417;42.686;23.244;2023-08-20T03:57:58;9.73;;;8.93;;
10731;SDS011;5417;42.686;23.244;2023-08-20T04:00:25;14.43;;;9.90;;
10731;SDS011;5417;42.686;23.244;2023-08-20T04:02:52;9.60;;;8.90;;
10731;SDS011;5417;42.686;23.244;2023-08-20T04:05:20;10.20;;;9.20;;
10731;SDS011;5417;42.686;23.244;2023-08-20T04:07:47;9.53;;;8.60;;
10731;SDS011;5417;42.686;23.244;2023-08-20T04:10:15;10.10;;;9.27;;
10731;SDS011;5417;42.686;23.244;2023-08-20T04:12:42;9.60;;;8.70;;
10731;SDS011;5417;42.686;23.244;2023-08-20T04:15:09;10.00;;;9.20;;
10731;SDS011;5417;42.686;23.244;2023-08-20T04:17:37;10.13;;;9.13;;
10731;SDS011;5417;42.686;23.244;2023-08-20T04:20:04;10.20;;;9.50;;
10731;SDS011;5417;42.686;23.244;2023-08-20T04:22:35;11.40;;;10.27;;
10731;SDS011;5417;42.686;23.244;2023-08-20T04:27:33;9.97;;;9.17;;
10731;SDS011;5417;42.686;23.244;2023-08-20T04:30:01;10.10;;;9.23;;
10731;SDS011;5417;42.686;23.244;2023-08-20T04:32:29;10.13;;;9.23;;
10731;SDS011;5417;42.686;23.244;2023-08-20T04:34:56;9.70;;;8.90;;
10731;SDS011;5417;42.686;23.244;2023-08-20T04:37:23;9.40;;;8.50;;
10731;SDS011;5417;42.686;23.244;2023-08-20T04:39:51;9.85;;;9.05;;
10731;SDS011;5417;42.686;23.244;2023-08-20T04:42:18;10.10;;;9.30;;
10731;SDS011;5417;42.686;23.244;2023-08-20T04:44:45;10.00;;;8.93;;
10731;SDS011;5417;42.686;23.244;2023-08-20T04:47:12;11.02;;;10.07;;
10731;SDS011;5417;42.686;23.244;2023-08-20T04:49:39;10.90;;;10.07;;
10731;SDS011;5417;42.686;23.244;2023-08-20T04:52:10;10.88;;;9.88;;
10731;SDS011;5417;42.686;23.244;2023-08-20T04:54:37;12.50;;;10.60;;
10731;SDS011;5417;42.686;23.244;2023-08-20T04:57:05;10.65;;;9.57;;
10731;SDS011;5417;42.686;23.244;2023-08-20T04:59:32;9.98;;;9.23;;
10731;SDS011;5417;42.686;23.244;2023-08-20T05:02:01;10.85;;;9.95;;
10731;SDS011;5417;42.686;23.244;2023-08-20T05:04:28;10.15;;;9.18;;
10731;SDS011;5417;42.686;23.244;2023-08-20T05:06:55;10.13;;;9.02;;
10731;SDS011;5417;42.686;23.244;2023-08-20T05:09:22;10.63;;;9.02;;
10731;SDS011;5417;42.686;23.244;2023-08-20T05:11:49;9.00;;;8.18;;
10731;SDS011;5417;42.686;23.244;2023-08-20T05:14:20;9.60;;;8.77;;
10731;SDS011;5417;42.686;23.244;2023-08-20T05:16:47;10.20;;;9.20;;
10731;SDS011;5417;42.686;23.244;2023-08-20T05:19:14;11.40;;;9.57;;
10731;SDS011;5417;42.686;23.244;2023-08-20T05:21:41;10.38;;;9.38;;
10731;SDS011;5417;42.686;23.244;2023-08-20T05:24:08;9.57;;;8.75;;
10731;SDS011;5417;42.686;23.244;2023-08-20T05:26:37;9.75;;;8.85;;
10731;SDS011;5417;42.686;23.244;2023-08-20T05:29:04;11.55;;;10.50;;
10731;SDS011;5417;42.686;23.244;2023-08-20T05:31:33;10.48;;;9.75;;
10731;SDS011;5417;42.686;23.244;2023-08-20T05:34:00;12.15;;;11.15;;
10731;SDS011;5417;42.686;23.244;2023-08-20T05:36:27;10.43;;;9.60;;
10731;SDS011;5417;42.686;23.244;2023-08-20T05:38:54;10.73;;;9.82;;
10731;SDS011;5417;42.686;23.244;2023-08-20T05:41:21;10.68;;;9.73;;
10731;SDS011;5417;42.686;23.244;2023-08-20T05:43:48;8.80;;;8.20;;
10731;SDS011;5417;42.686;23.244;2023-08-20T05:46:15;9.82;;;9.13;;
10731;SDS011;5417;42.686;23.244;2023-08-20T05:48:44;10.20;;;9.23;;
10731;SDS011;5417;42.686;23.244;2023-08-20T05:51:11;9.75;;;8.82;;
10731;SDS011;5417;42.686;23.244;2023-08-20T05:53:38;9.45;;;8.57;;
10731;SDS011;5417;42.686;23.244;2023-08-20T05:56:05;9.13;;;8.32;;
10731;SDS011;5417;42.686;23.244;2023-08-20T05:58:32;8.48;;;7.72;;
10731;SDS011;5417;42.686;23.244;2023-08-20T06:00:59;9.13;;;8.43;;
10731;SDS011;5417;42.686;23.244;2023-08-20T06:03:26;10.45;;;9.30;;
10731;SDS011;5417;42.686;23.244;2023-08-20T06:06:03;9.45;;;8.75;;
10731;SDS011;5417;42.686;23.244;2023-08-20T06:08:31;10.18;;;9.45;;
10731;SDS011;5417;42.686;23.244;2023-08-20T06:11:01;9.68;;;8.77;;
10731;SDS011;5417;42.686;23.244;2023-08-20T06:13:28;11.02;;;8.88;;
10731;SDS011;5417;42.686;23.244;2023-08-20T06:15:57;9.88;;;9.23;;
10731;SDS011;5417;42.686;23.244;2023-08-20T06:18:24;9.57;;;8.70;;
10731;SDS011;5417;42.686;23.244;2023-08-20T06:20:51;9.18;;;8.35;;
10731;SDS011;5417;42.686;23.244;2023-08-20T06:23:19;9.85;;;8.88;;
10731;SDS011;5417;42.686;23.244;2023-08-20T06:25:50;9.90;;;8.75;;
10731;SDS011;5417;42.686;23.244;2023-08-20T06:28:19;9.63;;;8.73;;
10731;SDS011;5417;42.686;23.244;2023-08-20T06:30:46;8.65;;;7.90;;
10731;SDS011;5417;42.686;23.244;2023-08-20T06:33:13;9.75;;;8.40;;
10731;SDS011;5417;42.686;23.244;2023-08-20T06:35:43;10.13;;;9.23;;
10731;SDS011;5417;42.686;23.244;2023-08-20T06:38:10;12.63;;;10.45;;
10731;SDS011;5417;42.686;23.244;2023-08-20T06:40:40;10.73;;;9.57;;
10731;SDS011;5417;42.686;23.244;2023-08-20T06:43:06;9.20;;;8.43;;
10731;SDS011;5417;42.686;23.244;2023-08-20T06:45:33;14.13;;;12.65;;
10731;SDS011;5417;42.686;23.244;2023-08-20T06:48:00;17.27;;;15.57;;
10731;SDS011;5417;42.686;23.244;2023-08-20T06:50:27;12.63;;;11.43;;
10731;SDS011;5417;42.686;23.244;2023-08-20T06:52:54;15.52;;;14.13;;
10731;SDS011;5417;42.686;23.244;2023-08-20T06:55:21;15.00;;;13.63;;
10731;SDS011;5417;42.686;23.244;2023-08-20T06:57:50;13.13;;;11.88;;
10731;SDS011;5417;42.686;23.244;2023-08-20T07:00:17;10.20;;;9.15;;
10731;SDS011;5417;42.686;23.244;2023-08-20T07:02:44;9.07;;;7.95;;
10731;SDS011;5417;42.686;23.244;2023-08-20T07:05:11;8.82;;;7.90;;
10731;SDS011;5417;42.686;23.244;2023-08-20T07:07:40;8.13;;;7.63;;
10731;SDS011;5417;42.686;23.244;2023-08-20T07:10:07;8.30;;;7.57;;
10731;SDS011;5417;42.686;23.244;2023-08-20T07:12:34;7.68;;;6.97;;
10731;SDS011;5417;42.686;23.244;2023-08-20T07:15:02;7.40;;;6.93;;
10731;SDS011;5417;42.686;23.244;2023-08-20T07:17:30;8.25;;;7.18;;
10731;SDS011;5417;42.686;23.244;2023-08-20T07:19:59;8.15;;;7.55;;
10731;SDS011;5417;42.686;23.244;2023-08-20T07:22:28;7.45;;;6.78;;
10731;SDS011;5417;42.686;23.244;2023-08-20T07:24:55;7.40;;;6.90;;
10731;SDS011;5417;42.686;23.244;2023-08-20T07:27:25;8.98;;;7.03;;
10731;SDS011;5417;42.686;23.244;2023-08-20T07:29:52;7.10;;;6.70;;
10731;SDS011;5417;42.686;23.244;2023-08-20T07:32:20;6.85;;;6.45;;
10731;SDS011;5417;42.686;23.244;2023-08-20T07:34:50;7.20;;;6.70;;
10731;SDS011;5417;42.686;23.244;2023-08-20T07:37:17;7.13;;;6.53;;
10731;SDS011;5417;42.686;23.244;2023-08-20T07:39:44;7.03;;;6.43;;
10731;SDS011;5417;42.686;23.244;2023-08-20T07:42:11;6.68;;;6.28;;
10731;SDS011;5417;42.686;23.244;2023-08-20T07:44:38;6.85;;;6.40;;
10731;SDS011;5417;42.686;23.244;2023-08-20T07:47:08;6.90;;;6.20;;
10731;SDS011;5417;42.686;23.244;2023-08-20T07:49:37;7.10;;;6.50;;
10731;SDS011;5417;42.686;23.244;2023-08-20T07:52:04;7.45;;;6.85;;
10731;SDS011;5417;42.686;23.244;2023-08-20T07:54:31;7.00;;;6.28;;
10731;SDS011;5417;42.686;23.244;2023-08-20T07:56:58;7.03;;;6.60;;
10731;SDS011;5417;42.686;23.244;2023-08-20T07:59:24;7.05;;;6.30;;
10731;SDS011;5417;42.686;23.244;2023-08-20T08:01:53;7.40;;;6.88;;
10731;SDS011;5417;42.686;23.244;2023-08-20T08:04:20;6.35;;;5.82;;
10731;SDS011;5417;42.686;23.244;2023-08-20T08:06:48;6.80;;;6.22;;
10731;SDS011;5417;42.686;23.244;2023-08-20T08:09:18;6.65;;;6.05;;
10731;SDS011;5417;42.686;23.244;2023-08-20T08:11:47;7.20;;;6.65;;
10731;SDS011;5417;42.686;23.244;2023-08-20T08:14:16;6.35;;;5.85;;
10731;SDS011;5417;42.686;23.244;2023-08-20T08:16:44;6.43;;;6.00;;
10731;SDS011;5417;42.686;23.244;2023-08-20T08:19:14;7.15;;;6.65;;
10731;SDS011;5417;42.686;23.244;2023-08-20T08:21:41;6.65;;;6.15;;
10731;SDS011;5417;42.686;23.244;2023-08-20T08:24:10;7.85;;;5.82;;
10731;SDS011;5417;42.686;23.244;2023-08-20T08:26:38;6.78;;;6.28;;
10731;SDS011;5417;42.686;23.244;2023-08-20T08:29:05;6.63;;;6.13;;
10731;SDS011;5417;42.686;23.244;2023-08-20T08:31:33;6.32;;;5.78;;
10731;SDS011;5417;42.686;23.244;2023-08-20T08:34:03;5.93;;;5.53;;
10731;SDS011;5417;42.686;23.244;2023-08-20T08:36:30;6.50;;;6.10;;
10731;SDS011;5417;42.686;23.244;2023-08-20T08:38:57;6.43;;;5.93;;
10731;SDS011;5417;42.686;23.244;2023-08-20T08:41:28;6.22;;;5.82;;
10731;SDS011;5417;42.686;23.244;2023-08-20T08:43:57;7.13;;;6.53;;
10731;SDS011;5417;42.686;23.244;2023-08-20T08:46:24;7.45;;;6.50;;
10731;SDS011;5417;42.686;23.244;2023-08-20T08:48:52;7.15;;;6.65;;
10731;SDS011;5417;42.686;23.244;2023-08-20T08:51:20;6.68;;;6.10;;
10731;SDS011;5417;42.686;23.244;2023-08-20T08:53:47;7.25;;;6.55;;
10731;SDS011;5417;42.686;23.244;2023-08-20T08:56:14;6.68;;;6.18;;
10731;SDS011;5417;42.686;23.244;2023-08-20T08:58:43;5.88;;;5.53;;
10731;SDS011;5417;42.686;23.244;2023-08-20T09:01:13;6.00;;;5.65;;
10731;SDS011;5417;42.686;23.244;2023-08-20T09:03:40;5.90;;;5.50;;
10731;SDS011;5417;42.686;23.244;2023-08-20T09:06:11;6.03;;;5.63;;
10731;SDS011;5417;42.686;23.244;2023-08-20T09:08:38;6.32;;;5.90;;
10731;SDS011;5417;42.686;23.244;2023-08-20T09:11:05;5.90;;;5.60;;
10731;SDS011;5417;42.686;23.244;2023-08-20T09:13:36;5.68;;;5.28;;
10731;SDS011;5417;42.686;23.244;2023-08-20T09:16:09;6.03;;;5.45;;
10731;SDS011;5417;42.686;23.244;2023-08-20T09:18:37;6.55;;;5.85;;
10731;SDS011;5417;42.686;23.244;2023-08-20T09:21:07;7.57;;;5.82;;
10731;SDS011;5417;42.686;23.244;2023-08-20T09:23:34;5.55;;;5.15;;
10731;SDS011;5417;42.686;23.244;2023-08-20T09:26:02;5.70;;;5.30;;
10731;SDS011;5417;42.686;23.244;2023-08-20T09:28:31;5.63;;;5.22;;
10731;SDS011;5417;42.686;23.244;2023-08-20T09:31:14;5.38;;;5.05;;
10731;SDS011;5417;42.686;23.244;2023-08-20T09:33:50;5.10;;;4.70;;
10731;SDS011;5417;42.686;23.244;2023-08-20T09:36:18;5.47;;;5.18;;
10731;SDS011;5417;42.686;23.244;2023-08-20T09:38:45;5.85;;;5.35;;
10731;SDS011;5417;42.686;23.244;2023-08-20T09:41:12;5.20;;;4.80;;
10731;SDS011;5417;42.686;23.244;2023-08-20T09:43:40;5.53;;;5.20;;
10731;SDS011;5417;42.686;23.244;2023-08-20T09:46:14;5.40;;;5.10;;
10731;SDS011;5417;42.686;23.244;2023-08-20T09:48:50;5.75;;;5.25;;
10731;SDS011;5417;42.686;23.244;2023-08-20T09:51:22;5.65;;;5.15;;
10731;SDS011;5417;42.686;23.244;2023-08-20T09:53:56;5.43;;;5.03;;
10731;SDS011;5417;42.686;23.244;2023-08-20T09:56:28;5.30;;;5.00;;
10731;SDS011;5417;42.686;23.244;2023-08-20T09:58:56;6.00;;;5.50;;
10731;SDS011;5417;42.686;23.244;2023-08-20T10:01:27;5.13;;;4.72;;
10731;SDS011;5417;42.686;23.244;2023-08-20T10:03:56;5.20;;;4.80;;
10731;SDS011;5417;42.686;23.244;2023-08-20T10:06:23;4.60;;;4.20;;
10731;SDS011;5417;42.686;23.244;2023-08-20T10:08:51;4.57;;;4.32;;
10731;SDS011;5417;42.686;23.244;2023-08-20T10:11:20;5.05;;;4.65;;
10731;SDS011;5417;42.686;23.244;2023-08-20T10:13:47;4.47;;;4.28;;
10731;SDS011;5417;42.686;23.244;2023-08-20T10:16:17;8.02;;;4.68;;
10731;SDS011;5417;42.686;23.244;2023-08-20T10:18:48;4.28;;;3.97;;
10731;SDS011;5417;42.686;23.244;2023-08-20T10:21:15;4.53;;;4.13;;
10731;SDS011;5417;42.686;23.244;2023-08-20T10:23:42;3.70;;;3.53;;
10731;SDS011;5417;42.686;23.244;2023-08-20T10:26:15;4.18;;;3.95;;
10731;SDS011;5417;42.686;23.244;2023-08-20T10:28:44;4.20;;;3.90;;
10731;SDS011;5417;42.686;23.244;2023-08-20T10:31:11;4.63;;;4.38;;
10731;SDS011;5417;42.686;23.244;2023-08-20T10:33:48;4.40;;;4.00;;
10731;SDS011;5417;42.686;23.244;2023-08-20T10:36:21;4.10;;;3.80;;
10731;SDS011;5417;42.686;23.244;2023-08-20T10:38:53;4.18;;;3.88;;
10731;SDS011;5417;42.686;23.244;2023-08-20T10:41:24;4.15;;;3.80;;
10731;SDS011;5417;42.686;23.244;2023-08-20T10:43:51;4.22;;;4.03;;
10731;SDS011;5417;42.686;23.244;2023-08-20T10:46:19;4.95;;;3.83;;
10731;SDS011;5417;42.686;23.244;2023-08-20T10:48:48;4.10;;;3.70;;
10731;SDS011;5417;42.686;23.244;2023-08-20T10:51:18;4.90;;;4.32;;
10731;SDS011;5417;42.686;23.244;2023-08-20T10:54:02;4.22;;;4.00;;
10731;SDS011;5417;42.686;23.244;2023-08-20T10:56:37;4.10;;;3.90;;
10731;SDS011;5417;42.686;23.244;2023-08-20T10:59:06;5.38;;;3.95;;
10731;SDS011;5417;42.686;23.244;2023-08-20T11:01:34;4.40;;;4.10;;
10731;SDS011;5417;42.686;23.244;2023-08-20T11:04:03;4.85;;;4.50;;
10731;SDS011;5417;42.686;23.244;2023-08-20T11:06:32;4.63;;;4.15;;
10731;SDS011;5417;42.686;23.244;2023-08-20T11:09:00;3.80;;;3.50;;
10731;SDS011;5417;42.686;23.244;2023-08-20T11:11:29;4.15;;;3.85;;
10731;SDS011;5417;42.686;23.244;2023-08-20T11:13:56;3.80;;;3.50;;
10731;SDS011;5417;42.686;23.244;2023-08-20T11:16:24;4.40;;;4.10;;
10731;SDS011;5417;42.686;23.244;2023-08-20T11:18:51;3.92;;;3.65;;
10731;SDS011;5417;42.686;23.244;2023-08-20T11:21:21;4.00;;;3.80;;
10731;SDS011;5417;42.686;23.244;2023-08-20T11:23:48;4.20;;;3.72;;
10731;SDS011;5417;42.686;23.244;2023-08-20T11:26:15;4.10;;;3.80;;
10731;SDS011;5417;42.686;23.244;2023-08-20T11:28:44;4.00;;;3.67;;
10731;SDS011;5417;42.686;23.244;2023-08-20T11:31:12;4.13;;;3.83;;
10731;SDS011;5417;42.686;23.244;2023-08-20T11:33:39;4.10;;;3.80;;
10731;SDS011;5417;42.686;23.244;2023-08-20T11:36:06;4.00;;;3.80;;
10731;SDS011;5417;42.686;23.244;2023-08-20T11:38:35;4.05;;;3.78;;
10731;SDS011;5417;42.686;23.244;2023-08-20T11:41:01;3.80;;;3.60;;
10731;SDS011;5417;42.686;23.244;2023-08-20T11:43:28;4.82;;;4.30;;
10731;SDS011;5417;42.686;23.244;2023-08-20T11:45:56;4.10;;;3.80;;
10731;SDS011;5417;42.686;23.244;2023-08-20T11:48:23;3.95;;;3.75;;
10731;SDS011;5417;42.686;23.244;2023-08-20T11:50:50;4.82;;;4.25;;
10731;SDS011;5417;42.686;23.244;2023-08-20T11:53:20;4.00;;;3.80;;
10731;SDS011;5417;42.686;23.244;2023-08-20T11:55:50;4.30;;;4.00;;
10731;SDS011;5417;42.686;23.244;2023-08-20T11:58:18;4.22;;;3.92;;
10731;SDS011;5417;42.686;23.244;2023-08-20T12:00:48;6.25;;;5.85;;
10731;SDS011;5417;42.686;23.244;2023-08-20T12:03:18;4.15;;;3.85;;
10731;SDS011;5417;42.686;23.244;2023-08-20T12:05:45;4.40;;;4.00;;
10731;SDS011;5417;42.686;23.244;2023-08-20T12:08:15;4.30;;;4.00;;
10731;SDS011;5417;42.686;23.244;2023-08-20T12:10:43;4.30;;;4.00;;
10731;SDS011;5417;42.686;23.244;2023-08-20T12:13:11;3.90;;;3.70;;
10731;SDS011;5417;42.686;23.244;2023-08-20T12:15:38;4.75;;;4.28;;
10731;SDS011;5417;42.686;23.244;2023-08-20T12:18:05;4.10;;;3.90;;
10731;SDS011;5417;42.686;23.244;2023-08-20T12:20:34;4.10;;;3.90;;
10731;SDS011;5417;42.686;23.244;2023-08-20T12:23:02;4.57;;;4.28;;
10731;SDS011;5417;42.686;23.244;2023-08-20T12:25:31;4.47;;;4.07;;
10731;SDS011;5417;42.686;23.244;2023-08-20T12:28:00;4.82;;;4.53;;
10731;SDS011;5417;42.686;23.244;2023-08-20T12:30:30;4.65;;;4.45;;
10731;SDS011;5417;42.686;23.244;2023-08-20T12:32:57;4.50;;;4.20;;
10731;SDS011;5417;42.686;23.244;2023-08-20T12:35:23;4.60;;;4.40;;
10731;SDS011;5417;42.686;23.244;2023-08-20T12:37:50;4.72;;;4.43;;
10731;SDS011;5417;42.686;23.244;2023-08-20T12:40:17;5.32;;;4.82;;
10731;SDS011;5417;42.686;23.244;2023-08-20T12:42:44;6.35;;;5.85;;
10731;SDS011;5417;42.686;23.244;2023-08-20T12:45:11;5.32;;;4.80;;
10731;SDS011;5417;42.686;23.244;2023-08-20T12:47:40;4.55;;;4.32;;
10731;SDS011;5417;42.686;23.244;2023-08-20T12:50:07;4.55;;;4.20;;
10731;SDS011;5417;42.686;23.244;2023-08-20T12:52:36;5.22;;;4.82;;
10731;SDS011;5417;42.686;23.244;2023-08-20T12:55:03;4.57;;;4.03;;
10731;SDS011;5417;42.686;23.244;2023-08-20T12:57:33;4.63;;;4.32;;
10731;SDS011;5417;42.686;23.244;2023-08-20T13:00:01;4.65;;;4.38;;
10731;SDS011;5417;42.686;23.244;2023-08-20T13:02:32;4.43;;;4.18;;
10731;SDS011;5417;42.686;23.244;2023-08-20T13:05:01;4.45;;;4.15;;
10731;SDS011;5417;42.686;23.244;2023-08-20T13:07:30;4.57;;;4.20;;
10731;SDS011;5417;42.686;23.244;2023-08-20T13:09:57;4.75;;;4.47;;
10731;SDS011;5417;42.686;23.244;2023-08-20T13:12:25;4.55;;;4.25;;
10731;SDS011;5417;42.686;23.244;2023-08-20T13:14:54;4.60;;;4.40;;
10731;SDS011;5417;42.686;23.244;2023-08-20T13:17:21;5.10;;;4.70;;
10731;SDS011;5417;42.686;23.244;2023-08-20T13:19:49;5.00;;;4.57;;
10731;SDS011;5417;42.686;23.244;2023-08-20T13:22:17;4.53;;;4.22;;
10731;SDS011;5417;42.686;23.244;2023-08-20T13:24:47;4.88;;;4.47;;
10731;SDS011;5417;42.686;23.244;2023-08-20T13:27:14;4.68;;;4.28;;
10731;SDS011;5417;42.686;23.244;2023-08-20T13:29:41;4.80;;;4.40;;
10731;SDS011;5417;42.686;23.244;2023-08-20T13:32:08;4.68;;;4.28;;
10731;SDS011;5417;42.686;23.244;2023-08-20T13:34:35;5.85;;;5.32;;
10731;SDS011;5417;42.686;23.244;2023-08-20T13:37:02;5.60;;;5.10;;
10731;SDS011;5417;42.686;23.244;2023-08-20T13:39:32;6.15;;;5.75;;
10731;SDS011;5417;42.686;23.244;2023-08-20T13:41:59;5.15;;;4.85;;
10731;SDS011;5417;42.686;23.244;2023-08-20T13:44:27;4.72;;;4.43;;
10731;SDS011;5417;42.686;23.244;2023-08-20T13:46:55;4.90;;;4.60;;
10731;SDS011;5417;42.686;23.244;2023-08-20T13:49:22;6.20;;;5.78;;
10731;SDS011;5417;42.686;23.244;2023-08-20T13:51:50;5.07;;;4.70;;
10731;SDS011;5417;42.686;23.244;2023-08-20T13:54:21;5.22;;;4.70;;
10731;SDS011;5417;42.686;23.244;2023-08-20T13:56:50;5.15;;;4.75;;
10731;SDS011;5417;42.686;23.244;2023-08-20T13:59:17;5.40;;;5.03;;
10731;SDS011;5417;42.686;23.244;2023-08-20T14:01:44;5.78;;;4.90;;
10731;SDS011;5417;42.686;23.244;2023-08-20T14:04:11;6.40;;;5.90;;
10731;SDS011;5417;42.686;23.244;2023-08-20T14:06:39;6.60;;;6.10;;
10731;SDS011;5417;42.686;23.244;2023-08-20T14:09:06;16.08;;;14.77;;
10731;SDS011;5417;42.686;23.244;2023-08-20T14:11:33;9.02;;;8.40;;
10731;SDS011;5417;42.686;23.244;2023-08-20T14:14:05;6.85;;;6.45;;
10731;SDS011;5417;42.686;23.244;2023-08-20T14:16:32;6.32;;;5.82;;
10731;SDS011;5417;42.686;23.244;2023-08-20T14:18:59;4.93;;;4.55;;
10731;SDS011;5417;42.686;23.244;2023-08-20T14:21:26;7.20;;;6.70;;
10731;SDS011;5417;42.686;23.244;2023-08-20T14:23:53;11.15;;;10.15;;
10731;SDS011;5417;42.686;23.244;2023-08-20T14:26:24;14.20;;;13.10;;
10731;SDS011;5417;42.686;23.244;2023-08-20T14:28:52;6.53;;;5.97;;
10731;SDS011;5417;42.686;23.244;2023-08-20T14:31:23;6.18;;;5.57;;
10731;SDS011;5417;42.686;23.244;2023-08-20T14:36:28;8.63;;;6.45;;
10731;SDS011;5417;42.686;23.244;2023-08-20T14:38:55;16.25;;;14.75;;
10731;SDS011;5417;42.686;23.244;2023-08-20T14:41:22;9.10;;;8.43;;
10731;SDS011;5417;42.686;23.244;2023-08-20T14:43:52;11.98;;;10.88;;
10731;SDS011;5417;42.686;23.244;2023-08-20T14:46:19;10.60;;;9.65;;
10731;SDS011;5417;42.686;23.244;2023-08-20T14:48:49;8.25;;;7.25;;
10731;SDS011;5417;42.686;23.244;2023-08-20T14:51:16;12.15;;;11.30;;
10731;SDS011;5417;42.686;23.244;2023-08-20T14:53:47;8.77;;;8.20;;
10731;SDS011;5417;42.686;23.244;2023-08-20T14:56:14;6.57;;;5.90;;
10731;SDS011;5417;42.686;23.244;2023-08-20T14:58:43;4.90;;;4.60;;
10731;SDS011;5417;42.686;23.244;2023-08-20T15:01:10;4.25;;;4.05;;
10731;SDS011;5417;42.686;23.244;2023-08-20T15:03:37;4.30;;;4.10;;
10731;SDS011;5417;42.686;23.244;2023-08-20T15:06:08;4.57;;;4.35;;